createdAt,value
2018-05-23T00:01:59.938Z,9.93
2018-05-23T00:04:27.416Z,11.80
2018-05-23T00:06:54.873Z,13.23
2018-05-23T00:09:22.327Z,8.63
2018-05-23T00:11:49.788Z,15.53
2018-05-23T00:14:17.257Z,17.43
2018-05-23T00:16:44.719Z,7.70
2018-05-23T00:19:12.189Z,9.73
2018-05-23T00:21:39.647Z,17.67
2018-05-23T00:24:07.165Z,11.03
2018-05-23T00:26:34.615Z,8.27
2018-05-23T00:29:02.915Z,7.40
2018-05-23T00:31:30.361Z,9.63
2018-05-23T00:33:58.240Z,10.67
2018-05-23T00:36:25.689Z,7.90
2018-05-23T00:38:53.161Z,6.90
2018-05-23T00:41:20.612Z,9.80
2018-05-23T00:43:48.089Z,7.80
2018-05-23T00:46:15.538Z,7.53
2018-05-23T00:48:42.993Z,9.57
2018-05-23T00:51:10.443Z,10.43
2018-05-23T00:53:37.903Z,9.23
2018-05-23T00:56:05.348Z,9.77
2018-05-23T00:58:32.810Z,12.60
2018-05-23T01:01:00.263Z,14.80
2018-05-23T01:03:27.727Z,11.77
2018-05-23T01:05:55.178Z,9.10
2018-05-23T01:08:22.637Z,6.80
2018-05-23T01:10:50.085Z,9.50
2018-05-23T01:13:18.314Z,12.30
2018-05-23T01:15:45.782Z,9.67
2018-05-23T01:18:13.230Z,10.17
2018-05-23T01:20:40.764Z,9.13
2018-05-23T01:23:08.207Z,11.00
2018-05-23T01:25:35.658Z,14.13
2018-05-23T01:28:03.111Z,8.87
2018-05-23T01:30:32.193Z,9.73
2018-05-23T01:32:59.642Z,7.90
2018-05-23T01:35:27.094Z,11.77
2018-05-23T01:37:54.554Z,8.20
2018-05-23T01:40:22.010Z,8.07
2018-05-23T01:42:49.463Z,9.87
2018-05-23T01:45:16.931Z,11.90
2018-05-23T01:47:44.375Z,10.03
2018-05-23T01:50:11.840Z,8.07
2018-05-23T01:52:39.358Z,7.80
2018-05-23T01:55:06.800Z,12.37
2018-05-23T01:57:34.255Z,8.40
2018-05-23T02:00:01.712Z,6.87
2018-05-23T02:02:29.167Z,8.90
2018-05-23T02:04:57.398Z,11.00
2018-05-23T02:07:24.878Z,15.03
2018-05-23T02:09:52.315Z,7.10
2018-05-23T02:12:19.771Z,9.13
2018-05-23T02:14:47.244Z,9.87
2018-05-23T02:17:14.684Z,9.67
2018-05-23T02:19:42.148Z,8.07
2018-05-23T02:22:09.606Z,10.20
2018-05-23T02:24:37.156Z,9.07
2018-05-23T02:27:04.632Z,8.70
2018-05-23T02:29:32.095Z,10.50
2018-05-23T02:31:59.547Z,9.40
2018-05-23T02:34:26.995Z,7.13
2018-05-23T02:36:54.446Z,8.93
2018-05-23T02:39:21.906Z,10.27
2018-05-23T02:41:49.355Z,8.40
2018-05-23T02:44:16.835Z,8.37
2018-05-23T02:46:44.297Z,9.50
2018-05-23T02:49:11.745Z,7.90
2018-05-23T02:51:39.195Z,8.47
2018-05-23T02:54:06.652Z,8.20
2018-05-23T02:56:34.146Z,9.93
2018-05-23T02:59:02.381Z,11.40
2018-05-23T03:01:29.834Z,9.93
2018-05-23T03:03:57.302Z,12.97
2018-05-23T03:06:24.747Z,7.90
2018-05-23T03:08:52.201Z,7.80
2018-05-23T03:11:19.658Z,7.63
2018-05-23T03:13:47.112Z,7.33
2018-05-23T03:16:14.559Z,7.60
2018-05-23T03:18:42.019Z,10.00
2018-05-23T03:21:09.529Z,8.53
2018-05-23T03:23:36.977Z,9.67
2018-05-23T03:26:04.439Z,8.80
2018-05-23T03:28:31.895Z,9.13
2018-05-23T03:30:59.360Z,9.00
2018-05-23T03:33:26.823Z,10.70
2018-05-23T03:35:54.301Z,10.83
2018-05-23T03:38:21.739Z,9.63
2018-05-23T03:40:49.207Z,9.97
2018-05-23T03:43:16.653Z,8.20
2018-05-23T03:45:44.118Z,8.50
2018-05-23T03:48:11.627Z,12.73
2018-05-23T03:50:39.088Z,9.97
2018-05-23T03:53:06.548Z,11.03
2018-05-23T03:55:34.023Z,9.47
2018-05-23T03:58:01.471Z,12.40
2018-05-23T04:00:40.997Z,9.57
2018-05-23T04:03:20.382Z,14.10
2018-05-23T04:05:59.700Z,10.40
2018-05-23T04:08:27.164Z,8.70
2018-05-23T04:10:54.628Z,12.63
2018-05-23T04:13:22.094Z,11.43
2018-05-23T04:15:49.559Z,10.50
2018-05-23T04:18:17.018Z,10.90
2018-05-23T04:20:44.473Z,9.40
2018-05-23T04:23:11.923Z,8.90
2018-05-23T04:25:39.391Z,11.37
2018-05-23T04:28:06.847Z,10.33
2018-05-23T04:30:34.312Z,10.40
2018-05-23T04:33:01.763Z,9.07
2018-05-23T04:35:29.223Z,9.70
2018-05-23T04:37:56.687Z,9.03
2018-05-23T04:40:24.144Z,8.83
2018-05-23T04:42:51.787Z,10.70
2018-05-23T04:45:19.211Z,9.80
2018-05-23T04:47:46.664Z,9.23
2018-05-23T04:50:14.116Z,8.90
2018-05-23T04:52:41.566Z,9.30
2018-05-23T04:55:09.025Z,9.53
2018-05-23T04:57:36.506Z,8.97
2018-05-23T05:00:03.972Z,9.47
2018-05-23T05:02:31.423Z,10.00
2018-05-23T05:04:58.883Z,9.37
2018-05-23T05:07:26.334Z,9.80
2018-05-23T05:09:53.883Z,10.50
2018-05-23T05:12:21.293Z,10.63
2018-05-23T05:14:48.719Z,13.93
2018-05-23T05:17:16.199Z,8.80
2018-05-23T05:19:43.655Z,10.20
2018-05-23T05:22:11.106Z,10.83
2018-05-23T05:24:38.575Z,7.77
2018-05-23T05:27:06.020Z,9.70
2018-05-23T05:29:33.471Z,9.90
2018-05-23T05:32:00.934Z,10.20
2018-05-23T05:34:28.401Z,10.63
2018-05-23T05:36:55.856Z,9.27
2018-05-23T05:39:23.320Z,12.07
2018-05-23T05:41:51.543Z,9.87
2018-05-23T05:44:19.760Z,8.73
2018-05-23T05:46:47.320Z,8.93
2018-05-23T05:49:14.704Z,9.90
2018-05-23T05:51:42.146Z,8.97
2018-05-23T05:54:09.604Z,8.87
2018-05-23T05:56:37.075Z,6.53
2018-05-23T05:59:04.534Z,7.43
2018-05-23T06:01:31.993Z,10.20
2018-05-23T06:03:59.436Z,8.40
2018-05-23T06:06:26.892Z,7.27
2018-05-23T06:08:54.347Z,7.07
2018-05-23T06:11:21.802Z,9.53
2018-05-23T06:13:49.260Z,7.30
2018-05-23T06:16:16.716Z,6.20
2018-05-23T06:18:44.200Z,13.53
2018-05-23T06:21:11.681Z,8.10
2018-05-23T06:23:39.127Z,7.43
2018-05-23T06:26:06.583Z,8.53
2018-05-23T06:28:34.032Z,6.93
2018-05-23T06:31:01.499Z,6.27
2018-05-23T06:33:28.935Z,9.43
2018-05-23T06:35:56.398Z,7.83
2018-05-23T06:38:23.849Z,7.33
2018-05-23T06:40:51.316Z,7.10
2018-05-23T06:43:19.566Z,10.17
2018-05-23T06:45:47.020Z,9.30
2018-05-23T06:48:14.472Z,8.03
2018-05-23T06:50:41.939Z,9.90
2018-05-23T06:53:09.397Z,9.80
2018-05-23T06:55:36.850Z,8.73
2018-05-23T06:58:04.295Z,11.83
2018-05-23T07:00:31.760Z,8.57
2018-05-23T07:02:59.212Z,7.00
2018-05-23T07:05:26.671Z,6.90
2018-05-23T07:07:54.127Z,8.53
2018-05-23T07:10:21.585Z,8.47
2018-05-23T07:12:49.036Z,7.20
2018-05-23T07:15:17.267Z,11.23
2018-05-23T07:17:44.798Z,8.00
2018-05-23T07:20:12.187Z,8.53
2018-05-23T07:22:39.651Z,11.43
2018-05-23T07:25:07.099Z,9.00
2018-05-23T07:27:34.559Z,10.77
2018-05-23T07:30:02.013Z,7.67
2018-05-23T07:32:29.504Z,7.57
2018-05-23T07:34:56.963Z,8.90
2018-05-23T07:37:24.423Z,10.77
2018-05-23T07:39:52.639Z,8.60
2018-05-23T07:42:20.094Z,9.43
2018-05-23T07:44:47.556Z,11.30
2018-05-23T07:47:15.053Z,8.70
2018-05-23T07:49:42.494Z,8.73
2018-05-23T07:52:09.964Z,11.57
2018-05-23T07:54:37.416Z,9.00
2018-05-23T07:57:04.867Z,7.53
2018-05-23T07:59:32.319Z,7.83
2018-05-23T08:01:59.780Z,7.90
2018-05-23T08:04:27.227Z,9.77
2018-05-23T08:06:54.687Z,7.00
2018-05-23T08:09:22.144Z,7.63
2018-05-23T08:11:49.604Z,8.07
2018-05-23T08:14:17.065Z,7.70
2018-05-23T08:16:44.523Z,7.13
2018-05-23T08:19:11.974Z,7.57
2018-05-23T08:21:39.431Z,7.73
2018-05-23T08:24:06.887Z,7.10
2018-05-23T08:26:34.350Z,7.90
2018-05-23T08:29:01.802Z,6.07
2018-05-23T08:31:29.260Z,6.10
2018-05-23T08:33:56.728Z,4.93
2018-05-23T08:36:24.198Z,5.40
2018-05-23T08:38:51.665Z,5.57
2018-05-23T08:41:19.092Z,4.87
2018-05-23T08:43:46.549Z,5.27
2018-05-23T08:46:14.003Z,4.93
2018-05-23T08:48:41.479Z,10.00
2018-05-23T08:51:08.937Z,8.80
2018-05-23T08:53:36.387Z,4.87
2018-05-23T08:56:03.858Z,6.63
2018-05-23T08:58:31.314Z,5.20
2018-05-23T09:00:58.767Z,5.33
2018-05-23T09:03:26.224Z,5.17
2018-05-23T09:05:53.683Z,6.20
2018-05-23T09:08:21.127Z,5.90
2018-05-23T09:10:48.594Z,7.60
2018-05-23T09:13:16.039Z,4.87
2018-05-23T09:15:43.495Z,5.10
2018-05-23T09:18:10.947Z,6.23
2018-05-23T09:20:38.403Z,5.93
2018-05-23T09:23:06.623Z,9.20
2018-05-23T09:25:34.103Z,4.47
2018-05-23T09:28:01.537Z,5.10
2018-05-23T09:30:28.983Z,5.63
2018-05-23T09:32:56.488Z,4.87
2018-05-23T09:35:23.944Z,5.93
2018-05-23T09:37:51.402Z,11.17
2018-05-23T09:40:18.863Z,6.03
2018-05-23T09:42:46.319Z,5.10
2018-05-23T09:45:13.839Z,5.27
2018-05-23T09:47:41.230Z,4.10
2018-05-23T09:50:08.684Z,7.00
2018-05-23T09:52:36.151Z,7.20
2018-05-23T09:55:03.612Z,6.03
2018-05-23T09:57:31.091Z,5.20
2018-05-23T09:59:59.310Z,5.10
2018-05-23T10:02:26.775Z,6.10
2018-05-23T10:04:54.231Z,6.77
2018-05-23T10:07:21.691Z,7.57
2018-05-23T10:09:49.139Z,9.70
2018-05-23T10:12:17.006Z,7.87
2018-05-23T10:14:44.493Z,6.33
2018-05-23T10:17:11.952Z,4.47
2018-05-23T10:19:39.402Z,5.53
2018-05-23T10:22:06.867Z,6.33
2018-05-23T10:24:34.332Z,3.90
2018-05-23T10:27:02.167Z,4.63
2018-05-23T10:29:29.611Z,5.00
2018-05-23T10:31:57.071Z,4.50
2018-05-23T10:34:24.511Z,4.13
2018-05-23T10:36:53.315Z,6.23
2018-05-23T10:39:20.775Z,7.10
2018-05-23T10:41:48.244Z,5.47
2018-05-23T10:44:15.702Z,7.10
2018-05-23T10:46:43.156Z,6.57
2018-05-23T10:49:10.606Z,3.70
2018-05-23T10:51:38.072Z,3.80
2018-05-23T10:54:05.525Z,9.23
2018-05-23T10:56:32.988Z,6.10
2018-05-23T10:59:00.448Z,5.10
2018-05-23T11:01:27.911Z,9.20
2018-05-23T11:03:55.361Z,4.03
2018-05-23T11:06:22.819Z,6.40
2018-05-23T11:08:50.273Z,4.27
2018-05-23T11:11:17.715Z,4.63
2018-05-23T11:13:46.147Z,7.00
2018-05-23T11:16:13.680Z,5.10
2018-05-23T11:18:41.416Z,3.30
2018-05-23T11:21:09.039Z,4.10
2018-05-23T11:23:36.543Z,8.10
2018-05-23T11:26:04.907Z,5.23
2018-05-23T11:28:32.366Z,3.43
2018-05-23T11:30:59.828Z,9.20
2018-05-23T11:33:27.542Z,7.17
2018-05-23T11:35:54.989Z,7.93
2018-05-23T11:38:22.709Z,4.10
2018-05-23T11:40:50.345Z,3.77
2018-05-23T11:43:17.860Z,5.83
2018-05-23T11:45:46.075Z,4.00
2018-05-23T11:48:13.541Z,3.60
2018-05-23T11:50:41.007Z,5.03
2018-05-23T11:53:08.458Z,7.00
2018-05-23T11:55:35.989Z,6.60
2018-05-23T11:58:03.457Z,4.20
2018-05-23T12:00:30.914Z,5.17
2018-05-23T12:02:58.377Z,4.63
2018-05-23T12:05:25.836Z,5.23
2018-05-23T12:07:53.307Z,3.37
2018-05-23T12:10:20.836Z,6.03
2018-05-23T12:12:48.203Z,7.77
2018-05-23T12:15:15.661Z,6.50
2018-05-23T12:17:43.118Z,3.73
2018-05-23T12:20:10.583Z,4.00
2018-05-23T12:22:38.036Z,5.90
2018-05-23T12:25:05.492Z,4.57
2018-05-23T12:27:32.946Z,4.37
2018-05-23T12:30:00.400Z,6.40
2018-05-23T12:32:27.866Z,9.27
2018-05-23T12:34:55.310Z,7.17
2018-05-23T12:37:22.767Z,6.93
2018-05-23T12:39:50.223Z,7.10
2018-05-23T12:42:17.678Z,4.53
2018-05-23T12:44:45.159Z,4.23
2018-05-23T12:47:12.614Z,4.57
2018-05-23T12:49:40.059Z,4.93
2018-05-23T12:52:07.519Z,4.83
2018-05-23T12:54:35.007Z,5.67
2018-05-23T12:57:02.469Z,4.43
2018-05-23T12:59:29.915Z,6.90
2018-05-23T13:01:57.376Z,4.87
2018-05-23T13:04:24.840Z,5.70
2018-05-23T13:06:52.283Z,6.33
2018-05-23T13:09:19.745Z,5.60
2018-05-23T13:11:47.192Z,5.67
2018-05-23T13:14:14.649Z,3.50
2018-05-23T13:16:42.096Z,5.10
2018-05-23T13:19:09.555Z,5.27
2018-05-23T13:21:37.002Z,10.40
2018-05-23T13:24:05.218Z,5.50
2018-05-23T13:26:32.675Z,4.83
2018-05-23T13:29:00.151Z,6.40
2018-05-23T13:31:27.689Z,8.60
2018-05-23T13:33:55.131Z,5.87
2018-05-23T13:36:22.587Z,5.03
2018-05-23T13:38:50.074Z,5.00
2018-05-23T13:41:17.503Z,6.03
2018-05-23T13:43:44.954Z,5.43
2018-05-23T13:46:13.176Z,3.27
2018-05-23T13:48:40.643Z,4.83
2018-05-23T13:51:08.101Z,4.70
2018-05-23T13:53:35.556Z,4.53
2018-05-23T13:56:03.064Z,3.30
2018-05-23T13:58:31.280Z,7.07
2018-05-23T14:00:58.737Z,7.30
2018-05-23T14:03:26.191Z,6.13
2018-05-23T14:05:53.649Z,4.70
2018-05-23T14:08:21.111Z,3.20
2018-05-23T14:10:48.558Z,6.00
2018-05-23T14:13:16.016Z,4.10
2018-05-23T14:15:43.464Z,3.33
2018-05-23T14:18:10.917Z,3.70
2018-05-23T14:20:38.367Z,3.40
2018-05-23T14:23:06.594Z,3.67
2018-05-23T14:25:34.051Z,4.60
2018-05-23T14:28:01.512Z,3.83
2018-05-23T14:30:28.952Z,4.63
2018-05-23T14:32:56.408Z,5.97
2018-05-23T14:35:23.862Z,7.23
2018-05-23T14:37:51.317Z,3.13
2018-05-23T14:40:18.772Z,5.30
2018-05-23T14:42:46.243Z,3.67
2018-05-23T14:45:13.693Z,3.27
2018-05-23T14:47:41.158Z,3.50
2018-05-23T14:50:08.699Z,4.80
2018-05-23T14:52:36.088Z,4.07
2018-05-23T14:55:03.550Z,5.23
2018-05-23T14:57:30.998Z,4.70
2018-05-23T14:59:58.451Z,3.83
2018-05-23T15:02:25.968Z,4.00
2018-05-23T15:04:53.372Z,4.03
2018-05-23T15:07:20.825Z,3.40
2018-05-23T15:09:48.286Z,3.30
2018-05-23T15:12:15.744Z,3.17
2018-05-23T15:14:43.187Z,5.03
2018-05-23T15:17:10.644Z,3.50
2018-05-23T15:19:38.218Z,3.70
2018-05-23T15:22:05.662Z,4.60
2018-05-23T15:24:33.122Z,3.30
2018-05-23T15:27:00.569Z,3.50
2018-05-23T15:29:28.033Z,5.27
2018-05-23T15:31:55.483Z,3.00
2018-05-23T15:34:22.950Z,5.70
2018-05-23T15:36:50.415Z,4.13
2018-05-23T15:39:17.863Z,6.73
2018-05-23T15:41:45.403Z,3.27
2018-05-23T15:44:12.791Z,3.50
2018-05-23T15:46:40.259Z,5.63
2018-05-23T15:49:07.711Z,5.03
2018-05-23T15:51:35.178Z,2.97
2018-05-23T15:54:02.654Z,4.00
2018-05-23T15:56:30.114Z,5.00
2018-05-23T15:58:57.562Z,5.03
2018-05-23T16:01:25.019Z,3.80
2018-05-23T16:03:52.478Z,5.63
2018-05-23T16:06:19.934Z,5.53
2018-05-23T16:08:47.398Z,4.87
2018-05-23T16:11:14.872Z,5.43
2018-05-23T16:13:42.324Z,5.57
2018-05-23T16:16:09.862Z,7.07
2018-05-23T16:18:37.308Z,4.53
2018-05-23T16:21:04.765Z,5.57
2018-05-23T16:23:32.222Z,11.10
2018-05-23T16:25:59.676Z,4.10
2018-05-23T16:28:27.131Z,3.60
2018-05-23T16:30:54.693Z,3.37
2018-05-23T16:33:22.911Z,5.70
2018-05-23T16:35:50.367Z,6.73
2018-05-23T16:38:18.000Z,6.40
2018-05-23T16:40:45.497Z,4.50
2018-05-23T16:43:12.972Z,7.10
2018-05-23T16:45:40.418Z,5.60
2018-05-23T16:48:07.884Z,3.20
2018-05-23T16:50:35.350Z,3.27
2018-05-23T16:53:02.816Z,6.37
2018-05-23T16:55:30.280Z,4.53
2018-05-23T16:57:57.732Z,4.47
2018-05-23T17:00:25.204Z,4.43
2018-05-23T17:02:53.428Z,4.83
2018-05-23T17:05:20.895Z,4.30
2018-05-23T17:07:48.450Z,6.20
2018-05-23T17:10:15.899Z,5.83
2018-05-23T17:12:43.347Z,4.33
2018-05-23T17:15:10.808Z,6.40
2018-05-23T17:17:38.255Z,3.77
2018-05-23T17:20:05.813Z,2.67
2018-05-23T17:22:34.023Z,3.43
2018-05-23T17:25:01.492Z,3.93
2018-05-23T17:27:28.975Z,3.10
2018-05-23T17:29:56.394Z,4.27
2018-05-23T17:32:23.846Z,3.00
2018-05-23T17:34:51.306Z,5.03
2018-05-23T17:37:18.781Z,8.53
2018-05-23T17:39:46.259Z,5.10
2018-05-23T17:42:13.708Z,10.47
2018-05-23T17:44:41.159Z,4.70
2018-05-23T17:47:08.612Z,4.73
2018-05-23T17:49:36.070Z,7.90
2018-05-23T17:52:03.515Z,2.63
2018-05-23T17:54:30.975Z,3.20
2018-05-23T17:56:58.481Z,3.87
2018-05-23T17:59:25.883Z,3.20
2018-05-23T18:01:53.333Z,3.80
2018-05-23T18:04:20.821Z,3.00
2018-05-23T18:06:48.276Z,3.90
2018-05-23T18:09:15.730Z,2.70
2018-05-23T18:11:43.185Z,5.13
2018-05-23T18:14:10.648Z,2.80
2018-05-23T18:16:38.175Z,4.30
2018-05-23T18:19:05.620Z,3.97
2018-05-23T18:21:33.076Z,4.37
2018-05-23T18:24:01.336Z,4.17
2018-05-23T18:26:28.775Z,3.20
2018-05-23T18:28:56.994Z,4.80
2018-05-23T18:31:25.215Z,5.67
2018-05-23T18:33:52.671Z,2.47
2018-05-23T18:36:20.123Z,2.73
2018-05-23T18:38:47.584Z,5.73
2018-05-23T18:41:15.037Z,4.23
2018-05-23T18:43:42.552Z,2.27
2018-05-23T18:46:09.999Z,4.33
2018-05-23T18:48:37.451Z,2.40
2018-05-23T18:51:04.922Z,2.90
2018-05-23T18:53:32.367Z,3.00
2018-05-23T18:55:59.824Z,3.50
2018-05-23T18:58:27.270Z,3.70
2018-05-23T19:00:54.731Z,3.33
2018-05-23T19:03:22.177Z,3.73
2018-05-23T19:05:49.634Z,4.10
2018-05-23T19:08:17.101Z,5.33
2018-05-23T19:10:44.577Z,3.67
2018-05-23T19:13:12.018Z,4.63
2018-05-23T19:15:39.480Z,3.57
2018-05-23T19:18:06.936Z,3.60
2018-05-23T19:20:34.415Z,4.17
2018-05-23T19:23:01.859Z,3.40
2018-05-23T19:25:29.315Z,5.43
2018-05-23T19:27:56.768Z,2.70
2018-05-23T19:30:24.254Z,7.37
2018-05-23T19:32:51.705Z,5.83
2018-05-23T19:35:19.156Z,5.80
2018-05-23T19:37:46.607Z,6.07
2018-05-23T19:40:14.063Z,5.30
2018-05-23T19:42:41.513Z,4.10
2018-05-23T19:45:08.978Z,4.93
2018-05-23T19:47:36.431Z,3.70
2018-05-23T19:50:03.885Z,4.77
2018-05-23T19:52:31.474Z,3.40
2018-05-23T19:54:58.883Z,4.17
2018-05-23T19:57:26.338Z,3.00
2018-05-23T19:59:53.796Z,8.23
2018-05-23T20:02:22.055Z,3.97
2018-05-23T20:04:49.534Z,4.10
2018-05-23T20:07:16.983Z,5.30
2018-05-23T20:09:44.442Z,2.97
2018-05-23T20:12:11.899Z,5.83
2018-05-23T20:14:39.359Z,3.10
2018-05-23T20:17:06.827Z,3.90
2018-05-23T20:19:34.277Z,3.87
2018-05-23T20:22:01.731Z,7.20
2018-05-23T20:24:29.871Z,4.43
2018-05-23T20:26:57.325Z,3.63
2018-05-23T20:29:24.783Z,4.10
2018-05-23T20:31:52.241Z,3.40
2018-05-23T20:34:19.699Z,4.50
2018-05-23T20:36:47.151Z,5.57
2018-05-23T20:39:15.715Z,4.00
2018-05-23T20:41:43.163Z,3.60
2018-05-23T20:44:10.614Z,5.30
2018-05-23T20:46:38.067Z,3.90
2018-05-23T20:49:05.545Z,3.50
2018-05-23T20:51:33.762Z,8.23
2018-05-23T20:54:01.980Z,4.33
2018-05-23T20:56:29.441Z,4.33
2018-05-23T20:58:56.893Z,10.70
2018-05-23T21:01:24.349Z,4.87
2018-05-23T21:03:51.800Z,10.17
2018-05-23T21:06:19.263Z,8.37
2018-05-23T21:08:46.715Z,11.53
2018-05-23T21:11:14.170Z,16.20
2018-05-23T21:13:41.622Z,10.00
2018-05-23T21:16:09.846Z,8.90
2018-05-23T21:18:37.295Z,7.10
2018-05-23T21:21:04.766Z,7.97
2018-05-23T21:23:32.212Z,6.07
2018-05-23T21:25:59.675Z,8.90
2018-05-23T21:28:27.124Z,4.90
2018-05-23T21:30:54.586Z,6.20
2018-05-23T21:33:22.038Z,6.43
2018-05-23T21:35:49.492Z,8.47
2018-05-23T21:38:16.945Z,12.37
2018-05-23T21:40:44.400Z,6.83
2018-05-23T21:43:11.852Z,7.40
2018-05-23T21:45:39.319Z,10.30
2018-05-23T21:48:06.767Z,5.10
2018-05-23T21:50:34.235Z,6.90
2018-05-23T21:53:01.685Z,9.10
2018-05-23T21:55:29.145Z,5.53
2018-05-23T21:57:56.610Z,4.80
2018-05-23T22:00:24.061Z,3.60
2018-05-23T22:02:51.515Z,4.13
2018-05-23T22:05:18.975Z,5.97
2018-05-23T22:07:46.427Z,5.43
2018-05-23T22:10:13.890Z,4.70
2018-05-23T22:12:41.340Z,5.83
2018-05-23T22:15:08.798Z,6.17
2018-05-23T22:17:36.243Z,4.63
2018-05-23T22:20:04.462Z,5.63
2018-05-23T22:22:31.916Z,4.77
2018-05-23T22:24:59.370Z,5.23
2018-05-23T22:27:26.824Z,7.03
2018-05-23T22:29:54.319Z,5.13
2018-05-23T22:32:21.771Z,5.80
2018-05-23T22:34:49.234Z,6.50
2018-05-23T22:37:16.692Z,3.90
2018-05-23T22:39:44.144Z,3.43
2018-05-23T22:42:11.602Z,3.90
2018-05-23T22:44:39.050Z,3.33
2018-05-23T22:47:06.511Z,4.30
2018-05-23T22:49:33.961Z,4.67
2018-05-23T22:52:01.419Z,3.40
2018-05-23T22:54:29.664Z,6.33
2018-05-23T22:56:57.122Z,3.87
2018-05-23T22:59:24.614Z,3.70
2018-05-23T23:01:52.064Z,3.40
2018-05-23T23:04:19.517Z,4.80
2018-05-23T23:06:46.980Z,5.57
2018-05-23T23:09:14.435Z,4.93
2018-05-23T23:11:41.906Z,5.00
2018-05-23T23:14:09.407Z,3.07
2018-05-23T23:16:36.823Z,4.47
2018-05-23T23:19:04.266Z,3.27
2018-05-23T23:21:31.724Z,2.97
2018-05-23T23:23:59.175Z,7.63
2018-05-23T23:26:26.626Z,4.40
2018-05-23T23:28:54.075Z,3.97
2018-05-23T23:31:22.294Z,3.93
2018-05-23T23:33:50.536Z,3.90
2018-05-23T23:36:17.995Z,4.20
2018-05-23T23:38:45.442Z,5.30
2018-05-23T23:41:13.671Z,3.30
2018-05-23T23:43:41.883Z,3.83
2018-05-23T23:46:10.397Z,4.13
2018-05-23T23:48:37.846Z,5.63
2018-05-23T23:51:05.303Z,3.50
2018-05-23T23:53:32.751Z,4.07
2018-05-23T23:56:00.971Z,4.70
2018-05-23T23:58:28.432Z,3.67
